Current Conditions
Partly Cloudy
Conditions



Pressure
1018.63 (kPa) - 30.08 (inHG)
Visibility

14.5 (km) - 9.0 (miles)
   Temperature
-6  °C
21°F
-11  °C
Dewpoint
68  %
 Humidity
   Wind Speed
13  km/h
7  kts
8  mph
3.6  m/s
   Wind Direction
 360°
Due North
   Airport Data
CYTZ
Location Billy Bishop Toronto City Centre Airport 37 km (23mi)
Metar :CYTZ 190800Z AUTO 36007G16KT 310V020 9SM FEW055 M06/M11 A3008 RMK SLP193
Mon 19th February 08:00 am
   Raw Metar Info
Raw METAR is the most common format in the world for the transmission of observational weather data. It is highly standardized through the International Civil Aviation Organization (ICAO), which allows it to be understood throughout most of the world.
   API Info
Data Provided by
https://www.checkwx.com/weather/
   © Info
CSS/SVG/PHP scripts were developed by weather34.com for use in the weather34 template © 2015-2024

Guide Info provided by Metar-Wikipedia